• Join FlightAware (Why Join?)
  • Login
  • US Flag 
12:52PM EDT


 

Airport Tracker/Info


-or-


 

Live Flight TrackerFlight Track Log ✈ EJA922 ✈ 24-Apr-2014 ✈ KTUS - KMHK

Flight Track Log - Related Links

Times and Time Zones

All times are in EDT time to prevent confusion due to time zone crossing. See the EJA922 flight status page for this flight to view local times or setup timezone preferences in your user account.

Time Position Orientation Groundspeed Altitude Reporting Facility
EDT Latitude Longitude Course Direction KTS MPH feet Rate Location/Type
02:33PM 32.1036 -110.9247 119° Southeast 192 221 3,300  Level Albuquerque Center
02:34PM 32.0697 -110.8536 119° Southeast 244 281 6,700 2,880 Climbing Albuquerque Center
02:34PM 32.0608 -110.8056 102° East 269 310 8,300 3,240 Climbing Albuquerque Center
02:35PM 32.0581 -110.7619 94° East 281 323 10,000 2,400 Climbing Albuquerque Center
02:36PM 32.0611 -110.6519 88° East 343 395 12,200 2,400 Climbing Albuquerque Center
02:37PM 32.0817 -110.5225 79° East 380 437 15,000 2,340 Climbing Albuquerque Center
02:38PM 32.1014 -110.3914 80° East 401 461 17,100 1,740 Climbing Albuquerque Center
02:39PM 32.1614 -110.2756 59° Northeast 418 481 18,600 1,680 Climbing Albuquerque Center
02:40PM 32.2561 -110.1461 49° Northeast 432 497 20,600 1,620 Climbing Albuquerque Center
02:41PM 32.3361 -110.0353 49° Northeast 439 505 22,000 1,320 Climbing Albuquerque Center
02:42PM 32.4189 -109.9206 49° Northeast 455 524 23,400 1,440 Climbing Albuquerque Center
02:43PM 32.5147 -109.8242 40° Northeast 456 525 25,000 1,560 Climbing Albuquerque Center
02:44PM 32.6219 -109.7392 34° Northeast 460 529 26,700 1,320 Climbing Albuquerque Center
02:45PM 32.7297 -109.6472 36° Northeast 466 536 27,800 1,440 Climbing Albuquerque Center
02:46PM 32.8194 -109.5247 49° Northeast 488 562 29,700 1,560 Climbing Albuquerque Center
02:47PM 32.9225 -109.3714 51° Northeast 489 563 31,100 1,200 Climbing Albuquerque Center
02:48PM 33.0119 -109.2392 51° Northeast 501 577 32,200 1,320 Climbing Albuquerque Center
02:49PM 33.1044 -109.1056 50° Northeast 507 583 33,900 1,860 Climbing Albuquerque Center
02:50PM 33.1925 -108.9706 52° Northeast 507 583 36,100 1,980 Climbing Albuquerque Center
02:51PM 33.2825 -108.8417 50° Northeast 505 581 38,000 1,680 Climbing Albuquerque Center
02:52PM 33.3678 -108.7144 51° Northeast 498 573 39,600 1,320 Climbing Albuquerque Center
02:54PM 33.4511 -108.5883 52° Northeast 490 564 40,800 660 Climbing Albuquerque Center
02:55PM 33.5358 -108.4611 51° Northeast 487 560 41,000 60 Climbing Albuquerque Center
02:56PM 33.6242 -108.3300 51° Northeast 495 570 41,000  Level Albuquerque Center
02:57PM 33.7314 -108.1678 51° Northeast 508 585 41,000  Level Albuquerque Center
02:58PM 33.8194 -108.0342 52° Northeast 510 587 41,000  Level Albuquerque Center
02:59PM 33.9100 -107.8981 51° Northeast 516 594 41,000  Level Albuquerque Center
03:00PM 34.0114 -107.7431 52° Northeast 525 604 41,000  Level Albuquerque Center
03:01PM 34.1003 -107.6064 52° Northeast 525 604 41,000  Level Albuquerque Center
03:02PM 34.1908 -107.4689 51° Northeast 525 604 41,000  Level Albuquerque Center
03:03PM 34.2811 -107.3297 52° Northeast 525 604 41,000  Level Albuquerque Center
03:04PM 34.3858 -107.1653 52° Northeast 528 608 41,000  Level Albuquerque Center
03:05PM 34.4783 -107.0272 51° Northeast 532 612 41,000  Level Albuquerque Center
03:06PM 34.5728 -106.8764 53° Northeast 527 606 41,000  Level Albuquerque Center
03:07PM 34.6594 -106.7425 52° Northeast 527 606 41,000  Level Albuquerque Center
03:08PM 34.7497 -106.5994 52° Northeast 528 608 41,000  Level Albuquerque Center
03:09PM 34.8394 -106.4575 52° Northeast 529 609 41,000  Level Albuquerque Center
03:10PM 34.9286 -106.3147 53° Northeast 529 609 41,000  Level Albuquerque Center
03:11PM 35.0372 -106.1419 52° Northeast 534 615 41,000  Level Albuquerque Center
03:12PM 35.1261 -105.9978 53° Northeast 534 615 41,000  Level Albuquerque Center
03:13PM 35.2161 -105.8547 52° Northeast 534 615 41,000  Level Albuquerque Center
03:14PM 35.3044 -105.7114 53° Northeast 534 615 41,000  Level Albuquerque Center
03:15PM 35.4039 -105.5500 53° Northeast 534 615 41,000  Level Albuquerque Center
03:16PM 35.4936 -105.4033 53° Northeast 534 615 41,000  Level Albuquerque Center
03:17PM 35.5844 -105.2556 53° Northeast 534 615 41,000  Level Albuquerque Center
03:18PM 35.6731 -105.1078 54° Northeast 534 615 41,000  Level Albuquerque Center
03:19PM 35.7561 -104.9544 56° Northeast 534 615 41,000  Level Albuquerque Center
03:20PM 35.8542 -104.7750 56° Northeast 533 613 41,000  Level Albuquerque Center
03:21PM 35.9364 -104.6225 56° Northeast 530 610 41,000  Level Albuquerque Center
03:22PM 36.0189 -104.4686 56° Northeast 529 609 41,000  Level Albuquerque Center
03:24PM 36.1022 -104.3119 57° Northeast 531 611 41,000  Level Albuquerque Center
03:25PM 36.1861 -104.1556 56° Northeast 536 617 41,000  Level Albuquerque Center
03:26PM 36.2694 -103.9975 57° Northeast 537 618 41,000  Level Albuquerque Center
03:27PM 36.3511 -103.8417 57° Northeast 537 618 41,000  Level Albuquerque Center
03:28PM 36.4331 -103.6856 57° Northeast 537 618 41,000  Level Albuquerque Center
03:29PM 36.5275 -103.5058 57° Northeast 530 610 41,000  Level Albuquerque Center
03:30PM 36.6075 -103.3506 57° Northeast 529 609 41,000  Level Albuquerque Center
03:31PM 36.6886 -103.1958 57° Northeast 529 609 41,000  Level Albuquerque Center
03:32PM 36.7694 -103.0378 57° Northeast 530 610 41,000  Level Albuquerque Center
03:33PM 36.8503 -102.8819 57° Northeast 530 610 41,000  Level Albuquerque Center
03:34PM 36.9347 -102.7144 58° Northeast 538 619 41,000  Level Albuquerque Center
03:35PM 37.0242 -102.5372 58° Northeast 538 619 41,000  Level Albuquerque Center
03:36PM 37.1025 -102.3844 57° Northeast 540 621 41,000  Level Albuquerque Center
03:37PM 37.1675 -102.2556 58° Northeast 541 623 41,000  Level Kansas City Center
03:38PM 37.2447 -102.1011 58° Northeast 542 624 41,000  Level Kansas City Center
03:39PM 37.3344 -101.9211 58° Northeast 543 625 41,000  Level Kansas City Center
03:40PM 37.4106 -101.7658 58° Northeast 543 625 41,000  Level Kansas City Center
03:41PM 37.4986 -101.5892 58° Northeast 539 620 41,000  Level Kansas City Center
03:42PM 37.5719 -101.4406 58° Northeast 525 604 41,000  Level Kansas City Center
03:43PM 37.6567 -101.2664 58° Northeast 524 603 41,000  Level Kansas City Center
03:44PM 37.7281 -101.1183 59° Northeast 522 601 41,000  Level Kansas City Center
03:45PM 37.8050 -100.9608 58° Northeast 524 603 41,000  Level Kansas City Center
03:46PM 37.8928 -100.7769 59° Northeast 535 616 41,000  Level Kansas City Center
03:47PM 37.9569 -100.6122 64° Northeast 538 619 41,000  Level Kansas City Center
03:48PM 38.0128 -100.4450 67° East 538 619 41,000  Level Kansas City Center
03:49PM 38.0781 -100.2469 67° East 539 620 41,000  Level Kansas City Center
03:50PM 38.1356 -100.0767 67° East 544 626 41,000  Level Kansas City Center
03:51PM 38.2008 -99.8781 67° East 544 626 41,000  Level Kansas City Center
03:52PM 38.2569 -99.7083 67° East 544 626 41,000  Level Kansas City Center
03:53PM 38.3225 -99.5097 67° East 544 626 41,000  Level Kansas City Center
03:54PM 38.3764 -99.3472 67° East 544 626 41,000  Level Kansas City Center
03:55PM 38.4339 -99.1706 67° East 544 626 41,000 -540 Level Kansas City Center
03:56PM 38.4925 -98.9908 67° East 544 626 40,000 -1,620 Descending Kansas City Center
03:57PM 38.5511 -98.8103 67° East 547 629 37,700 -2,940 Descending Kansas City Center
03:58PM 38.6150 -98.6125 67° East 502 578 34,000 -3,000 Descending Kansas City Center
03:59PM 38.6647 -98.4533 68° East 485 558 31,500 -2,520 Descending Kansas City Center
04:00PM 38.7011 -98.2889 74° East 479 551 28,900 -2,640 Descending Kansas City Center
04:01PM 38.7372 -98.1208 75° East 486 559 26,200 -2,640 Descending Kansas City Center
04:02PM 38.7728 -97.9514 75° East 490 564 23,600 -2,580 Descending Kansas City Center
04:03PM 38.8089 -97.7783 75° East 481 554 20,900 -2,640 Descending Kansas City Center
04:05PM 38.8458 -97.6097 74° East 450 518 18,200 -2,580 Descending Kansas City Center
04:05PM 38.8622 -97.5272 76° East 417 480 16,700 -1,980 Descending Kansas City Center
04:06PM 38.8694 -97.4914 75° East 422 486 16,200 -2,100 Descending Kansas City Center
04:06PM 38.8944 -97.3731 75° East 392 451 14,400 -2,460 Descending Kansas City Center
04:07PM 38.9019 -97.3314 77° East 394 453 13,700 -2,100 Descending Kansas City Center
04:07PM 38.9197 -97.2411 76° East 358 412 12,300 -1,680 Descending Kansas City Center
04:08PM 38.9278 -97.2039 74° East 356 410 12,000 -2,100 Descending Kansas City Center
04:08PM 38.9406 -97.1311 77° East 325 374 10,200 -2,640 Descending Kansas City Center
04:09PM 38.9447 -97.0864 83° East 325 374 9,300 -2,400 Descending Kansas City Center
04:09PM 38.9547 -97.0192 79° East 292 336 7,800 -2,340 Descending Kansas City Center
04:10PM 38.9586 -96.9828 82° East 284 327 6,900 -2,040 Descending Kansas City Center
04:10PM 38.9667 -96.9317 79° East 256 295 5,800 -1,980 Descending Kansas City Center
04:11PM 38.9714 -96.8900 82° East 254 292 4,900 -1,680 Descending Kansas City Center
04:11PM 38.9808 -96.8494 73° East 211 243 4,100 -900 Descending Kansas City Center
04:12PM 38.9911 -96.8286 58° Northeast 192 221 4,000 -120 Descending Kansas City Center
04:12PM 39.0131 -96.8075 37° Northeast 157 181 4,000 -300 Level Kansas City Center
04:13PM 39.0283 -96.7897 42° Northeast 168 193 3,700 -720 Descending Kansas City Center
04:13PM 39.0478 -96.7706 37° Northeast 148 170 3,300 -780 Descending Kansas City Center
04:14PM 39.0600 -96.7558 43° Northeast 141 162 2,900 -840 Descending Kansas City Center
04:14PM 39.0767 -96.7397 37° Northeast 130 150 2,500 -720 Descending Kansas City Center
04:15PM 39.0900 -96.7217 46° Northeast 138 159 2,200 -720 Descending Kansas City Center
04:15PM 39.1036 -96.7092 35° Northeast 131 151 1,800 -780 Descending Kansas City Center
04:16PM 39.1203 -96.6914 40° Northeast 137 158 1,400 -480 Descending Kansas City Center
04:17PM 39.1494 -96.6608 39° Northeast 134 154 1,100 -300 Descending Kansas City Center